Time;durP1;ratioP1;P1;durP2;ratioP2;P2;SDS_P1;SDS_P2;PMS_P1;PMS_P2;Temp;Humidity;BMP_temperature;BMP_pressure;BME280_temperature;BME280_humidity;BME280_pressure;Samples;Min_cycle;Max_cycle;Signal;HPM_P1;HPM_P2
2022/01/15 00:02:17;;;;;;;271.38;32.70;;;4.10;99.90;;;;;;4974832;28;20030;-87
2022/01/15 00:04:43;;;;;;;200.70;29.23;;;4.10;99.90;;;;;;4975790;28;20403;-87
2022/01/15 00:07:08;;;;;;;193.95;28.20;;;4.10;99.90;;;;;;4977379;28;20034;-87
2022/01/15 00:09:34;;;;;;;273.33;30.25;;;4.10;99.90;;;;;;4975933;28;20026;-87
2022/01/15 00:12:00;;;;;;;203.32;29.02;;;4.10;99.90;;;;;;4975986;28;20030;-87
2022/01/15 00:14:31;;;;;;;222.85;32.08;;;4.10;99.90;;;;;;4974703;28;20491;-87
2022/01/15 00:17:05;;;;;;;223.60;27.48;;;4.00;99.90;;;;;;4975697;28;20030;-87
2022/01/15 00:19:41;;;;;;;163.95;27.42;;;4.10;99.90;;;;;;4972467;28;20028;-87
2022/01/15 00:22:14;;;;;;;174.88;26.48;;;4.00;99.90;;;;;;4975670;28;20061;-87
2022/01/15 00:24:41;;;;;;;178.13;25.13;;;4.00;99.90;;;;;;4990664;28;20050;-87
2022/01/15 00:27:07;;;;;;;152.50;25.70;;;4.00;99.90;;;;;;4975842;28;20034;-87
2022/01/15 00:29:33;;;;;;;207.15;26.75;;;4.00;99.90;;;;;;4993628;28;20022;-87
2022/01/15 00:32:00;;;;;;;197.85;26.08;;;4.00;99.90;;;;;;4969909;28;20529;-87
2022/01/15 00:34:26;;;;;;;170.07;23.48;;;4.10;99.90;;;;;;4975646;28;20549;-87
2022/01/15 00:36:52;;;;;;;138.57;21.98;;;4.00;99.90;;;;;;4992820;28;20121;-87
2022/01/15 00:39:17;;;;;;;133.15;23.60;;;4.00;99.90;;;;;;4975929;28;20113;-87
2022/01/15 00:41:43;;;;;;;127.20;23.70;;;4.00;99.90;;;;;;4974316;28;20027;-87
2022/01/15 00:44:08;;;;;;;106.63;21.88;;;4.00;99.90;;;;;;4969448;28;20054;-87
2022/01/15 00:46:34;;;;;;;139.98;21.58;;;4.00;99.90;;;;;;4975597;28;20125;-87
2022/01/15 00:48:59;;;;;;;183.80;23.67;;;4.00;99.90;;;;;;4975931;28;20022;-87
2022/01/15 00:51:25;;;;;;;149.00;22.77;;;4.00;99.90;;;;;;4988089;28;20591;-86
2022/01/15 00:53:51;;;;;;;132.38;23.40;;;3.90;99.90;;;;;;4992866;28;20023;-87
2022/01/15 00:56:17;;;;;;;114.30;22.20;;;3.90;99.90;;;;;;4975124;28;20058;-87
2022/01/15 00:58:42;;;;;;;126.30;23.10;;;3.90;99.90;;;;;;4975932;28;20119;-87
2022/01/15 01:01:08;;;;;;;117.07;21.70;;;3.90;99.90;;;;;;4993477;28;20443;-86
2022/01/15 01:03:33;;;;;;;117.95;21.95;;;3.90;99.90;;;;;;4974147;28;20038;-87
2022/01/15 01:05:59;;;;;;;186.80;25.02;;;3.90;99.90;;;;;;4979197;28;20092;-87
2022/01/15 01:08:24;;;;;;;147.88;24.35;;;3.80;99.90;;;;;;4979031;28;20058;-87
2022/01/15 01:10:56;;;;;;;155.70;24.00;;;3.80;99.90;;;;;;4979081;28;20026;-87
2022/01/15 01:24:23;;;;;;;211.68;25.42;;;3.80;99.90;;;;;;4995150;28;20050;-87
2022/01/15 01:29:38;;;;;;;156.73;22.90;;;3.80;99.90;;;;;;4996328;28;20041;-87
2022/01/15 01:34:33;;;;;;;167.18;26.13;;;3.90;99.90;;;;;;4995548;28;20069;-87
2022/01/15 01:45:10;;;;;;;182.15;26.52;;;3.80;99.90;;;;;;4996015;28;20030;-88
2022/01/15 01:47:40;;;;;;;131.15;24.10;;;3.80;99.90;;;;;;4978357;28;20034;-86
2022/01/15 01:50:16;;;;;;;151.70;25.23;;;3.80;99.90;;;;;;4978274;28;20018;-87
2022/01/15 01:52:46;;;;;;;98.50;20.60;;;3.80;99.90;;;;;;4972688;28;20470;-86
2022/01/15 01:55:12;;;;;;;94.90;20.50;;;3.80;99.90;;;;;;4977358;28;20037;-87
2022/01/15 01:57:39;;;;;;;97.40;19.70;;;3.80;99.90;;;;;;4978023;28;20053;-87
2022/01/15 02:00:08;;;;;;;83.35;18.83;;;3.70;99.90;;;;;;4977474;28;20471;-87
2022/01/15 02:02:33;;;;;;;84.03;18.48;;;3.70;99.90;;;;;;4976577;28;20031;-86
2022/01/15 02:04:59;;;;;;;117.40;21.20;;;3.70;99.90;;;;;;4981410;28;20088;-87
2022/01/15 02:07:26;;;;;;;132.55;21.63;;;3.70;99.90;;;;;;4982913;28;20042;-87
2022/01/15 02:09:52;;;;;;;90.80;18.02;;;3.70;99.90;;;;;;4978670;28;20483;-87
2022/01/15 02:12:17;;;;;;;99.50;20.20;;;3.70;99.90;;;;;;4973855;28;20057;-87
2022/01/15 02:14:43;;;;;;;82.13;17.75;;;3.70;99.90;;;;;;4976769;28;20089;-87
2022/01/15 02:17:11;;;;;;;103.47;18.80;;;3.70;99.90;;;;;;4977758;28;20058;-86
2022/01/15 02:19:45;;;;;;;78.88;18.10;;;3.60;99.90;;;;;;4978253;28;20077;-87
2022/01/15 02:24:55;;;;;;;127.30;20.40;;;3.70;99.90;;;;;;4994742;28;20084;-87
2022/01/15 02:27:20;;;;;;;110.05;19.85;;;3.60;99.90;;;;;;4978171;28;20061;-87
2022/01/15 02:29:46;;;;;;;98.85;19.05;;;3.60;99.90;;;;;;4980601;28;20026;-87
2022/01/15 02:32:11;;;;;;;121.57;22.30;;;3.60;99.90;;;;;;4994608;28;20049;-87
2022/01/15 02:34:37;;;;;;;112.82;21.90;;;3.70;99.90;;;;;;4994125;28;20037;-87
2022/01/15 02:37:02;;;;;;;111.63;20.50;;;3.60;99.90;;;;;;4977793;28;20117;-87
2022/01/15 02:39:28;;;;;;;100.70;20.00;;;3.60;99.90;;;;;;4980056;28;20383;-87
2022/01/15 02:41:54;;;;;;;110.75;21.52;;;3.60;99.90;;;;;;4974902;28;20474;-87
2022/01/15 02:44:20;;;;;;;171.10;25.70;;;3.60;99.90;;;;;;4976557;28;20031;-86
2022/01/15 02:49:15;;;;;;;140.43;26.67;;;3.60;99.90;;;;;;4994502;28;20038;-87
2022/01/15 02:51:40;;;;;;;132.98;24.60;;;3.60;99.90;;;;;;4973702;28;20031;-87
2022/01/15 02:54:06;;;;;;;186.02;28.08;;;3.60;99.90;;;;;;4977243;28;20029;-87
2022/01/15 02:56:37;;;;;;;154.90;26.90;;;3.60;99.90;;;;;;4977309;28;20018;-87
2022/01/15 02:59:05;;;;;;;122.55;23.80;;;3.60;99.90;;;;;;4977189;28;20509;-86
2022/01/15 03:01:32;;;;;;;190.27;27.98;;;3.50;99.90;;;;;;4969282;28;20034;-87
2022/01/15 03:03:59;;;;;;;149.40;28.33;;;3.50;99.90;;;;;;4977328;28;20030;-87
2022/01/15 03:06:24;;;;;;;135.68;27.08;;;3.50;99.90;;;;;;4980298;28;20057;-87
2022/01/15 03:08:51;;;;;;;133.93;25.05;;;3.50;99.90;;;;;;4994496;28;20035;-88
2022/01/15 03:11:17;;;;;;;129.60;26.23;;;3.50;99.90;;;;;;4976627;28;20426;-88
2022/01/15 03:13:44;;;;;;;128.48;25.67;;;3.40;99.90;;;;;;4973623;28;20480;-87
2022/01/15 03:16:15;;;;;;;149.05;26.10;;;3.40;99.90;;;;;;4975638;28;20036;-87
2022/01/15 03:18:41;;;;;;;114.13;23.83;;;3.40;99.90;;;;;;4979764;28;20652;-87
2022/01/15 03:21:06;;;;;;;91.10;22.38;;;3.40;99.90;;;;;;4977056;28;20034;-87
2022/01/15 03:23:32;;;;;;;98.30;22.42;;;3.40;99.90;;;;;;4972617;28;20047;-87
2022/01/15 03:25:57;;;;;;;85.15;21.42;;;3.40;99.90;;;;;;4989823;28;20089;-87
2022/01/15 03:28:23;;;;;;;88.78;22.27;;;3.40;99.90;;;;;;4973830;28;20101;-87
2022/01/15 03:30:48;;;;;;;95.50;22.75;;;3.30;99.90;;;;;;4972833;28;20514;-87
2022/01/15 03:33:14;;;;;;;89.22;22.27;;;3.40;99.90;;;;;;4970206;28;20039;-87
2022/01/15 03:35:40;;;;;;;94.10;22.65;;;3.30;99.90;;;;;;4962156;28;20026;-87
2022/01/15 03:38:06;;;;;;;86.32;21.52;;;3.40;99.90;;;;;;4971484;28;20046;-87
2022/01/15 03:40:33;;;;;;;93.20;21.65;;;3.40;99.90;;;;;;4965747;28;20436;-87
2022/01/15 03:42:59;;;;;;;75.72;20.90;;;3.40;99.90;;;;;;4969890;28;20439;-87
2022/01/15 03:45:25;;;;;;;80.38;21.98;;;3.40;99.90;;;;;;4988997;28;20034;-87
2022/01/15 03:47:51;;;;;;;94.63;22.52;;;3.40;99.90;;;;;;4989471;28;20042;-87
2022/01/15 03:50:18;;;;;;;83.50;22.95;;;3.40;99.90;;;;;;4972626;28;20106;-86
2022/01/15 03:52:44;;;;;;;100.78;25.73;;;3.40;99.90;;;;;;4971910;28;20078;-87
2022/01/15 03:55:12;;;;;;;104.13;25.10;;;3.40;99.90;;;;;;4971677;28;20031;-87
2022/01/15 03:57:37;;;;;;;125.07;26.48;;;3.40;99.90;;;;;;4972693;28;20061;-87
2022/01/15 04:00:26;;;;;;;90.43;25.05;;;3.40;99.90;;;;;;4989136;28;20475;-87
2022/01/15 04:02:53;;;;;;;115.65;25.63;;;3.40;99.90;;;;;;4971343;28;20435;-85
2022/01/15 04:05:19;;;;;;;113.15;26.42;;;3.40;99.90;;;;;;4985057;28;20066;-87
2022/01/15 04:07:45;;;;;;;112.65;24.77;;;3.40;99.90;;;;;;4972850;28;20042;-87
2022/01/15 04:10:12;;;;;;;100.55;21.75;;;3.50;99.90;;;;;;4987207;28;20026;-87
2022/01/15 04:12:38;;;;;;;109.28;24.98;;;3.50;99.90;;;;;;4986272;28;20085;-87
2022/01/15 04:15:07;;;;;;;101.13;26.30;;;3.50;99.90;;;;;;4972656;28;20027;-87
2022/01/15 04:17:32;;;;;;;117.90;27.35;;;3.50;99.90;;;;;;4972459;28;20095;-87
2022/01/15 04:19:58;;;;;;;124.63;28.75;;;3.50;99.90;;;;;;4973657;28;20042;-87
2022/01/15 04:22:24;;;;;;;140.45;29.73;;;3.50;99.90;;;;;;4973935;28;20109;-87
2022/01/15 04:24:49;;;;;;;127.57;28.67;;;3.40;99.90;;;;;;4972885;28;20046;-87
2022/01/15 04:27:15;;;;;;;105.65;25.77;;;3.40;99.90;;;;;;4972083;28;20107;-87
2022/01/15 04:29:41;;;;;;;110.85;26.08;;;3.40;99.90;;;;;;4972257;28;20038;-87
2022/01/15 04:32:07;;;;;;;95.40;23.65;;;3.50;99.90;;;;;;4971798;28;20045;-87
2022/01/15 04:34:32;;;;;;;90.47;22.25;;;3.50;99.90;;;;;;4971929;28;20035;-87
2022/01/15 04:37:07;;;;;;;89.68;23.00;;;3.40;99.90;;;;;;4976640;28;20117;-88
2022/01/15 04:39:32;;;;;;;86.05;22.88;;;3.50;99.90;;;;;;4976361;28;20495;-87
2022/01/15 04:41:58;;;;;;;84.25;21.15;;;3.50;99.90;;;;;;4976529;28;20030;-88
2022/01/15 04:44:23;;;;;;;74.07;22.10;;;3.50;99.90;;;;;;4992365;28;20039;-88
2022/01/15 04:46:49;;;;;;;84.18;22.25;;;3.50;99.90;;;;;;4975658;28;20049;-87
2022/01/15 04:49:14;;;;;;;71.22;19.88;;;3.50;99.90;;;;;;4973067;28;20046;-87
2022/01/15 04:51:40;;;;;;;85.18;21.02;;;3.60;99.90;;;;;;4979167;28;20073;-88
2022/01/15 04:54:05;;;;;;;81.28;20.08;;;3.60;99.90;;;;;;4972912;28;20072;-87
2022/01/15 04:56:31;;;;;;;78.55;20.77;;;3.50;99.90;;;;;;4992352;28;20066;-88
2022/01/15 04:58:57;;;;;;;86.15;22.17;;;3.60;99.90;;;;;;4976287;28;20403;-88
2022/01/15 05:01:22;;;;;;;99.03;23.73;;;3.60;99.90;;;;;;4994642;28;20038;-88
2022/01/15 05:03:48;;;;;;;111.30;23.42;;;3.60;99.90;;;;;;4973079;28;20050;-87
2022/01/15 05:06:13;;;;;;;111.00;26.02;;;3.60;99.90;;;;;;4975931;28;20100;-88
2022/01/15 05:08:41;;;;;;;114.68;24.77;;;3.60;99.90;;;;;;4975831;28;20491;-88
2022/01/15 05:11:15;;;;;;;106.38;24.40;;;3.60;99.90;;;;;;4976154;28;20030;-87
2022/01/15 05:13:41;;;;;;;123.65;25.15;;;3.70;99.90;;;;;;4991713;28;20019;-88
2022/01/15 05:16:07;;;;;;;129.13;27.05;;;3.60;99.90;;;;;;4975987;28;20033;-87
2022/01/15 05:18:33;;;;;;;108.85;24.33;;;3.60;99.90;;;;;;4975441;28;20109;-88
2022/01/15 05:20:58;;;;;;;108.80;23.45;;;3.70;99.90;;;;;;4975751;28;20027;-87
2022/01/15 05:23:24;;;;;;;130.18;25.35;;;3.70;99.90;;;;;;4975158;28;20047;-88
2022/01/15 05:25:49;;;;;;;136.88;27.55;;;3.70;99.90;;;;;;4976176;28;20031;-88
2022/01/15 05:28:15;;;;;;;152.25;35.47;;;3.70;99.90;;;;;;4976195;28;20094;-88
2022/01/15 05:30:41;;;;;;;143.40;28.38;;;3.70;99.90;;;;;;4976765;28;20026;-88
2022/01/15 05:33:06;;;;;;;117.50;25.13;;;3.70;99.90;;;;;;4974690;28;20035;-87
2022/01/15 05:35:32;;;;;;;110.95;23.20;;;3.70;99.90;;;;;;4974758;28;20023;-88
2022/01/15 05:37:59;;;;;;;126.97;25.10;;;3.60;99.90;;;;;;4975479;28;20031;-88
2022/01/15 05:40:25;;;;;;;119.72;26.70;;;3.70;99.90;;;;;;4973345;28;20030;-87
2022/01/15 05:42:52;;;;;;;147.75;27.20;;;3.70;99.90;;;;;;4974740;28;20061;-88
2022/01/15 05:45:18;;;;;;;114.45;25.42;;;3.70;99.90;;;;;;4975416;28;20022;-88
2022/01/15 05:47:44;;;;;;;103.32;23.63;;;3.70;99.90;;;;;;4974802;28;20033;-88
2022/01/15 05:50:10;;;;;;;130.55;25.35;;;3.70;99.90;;;;;;4974996;28;20026;-88
2022/01/15 05:52:36;;;;;;;137.68;27.13;;;3.70;99.90;;;;;;4971785;28;20027;-88
2022/01/15 05:55:02;;;;;;;111.20;24.38;;;3.70;99.90;;;;;;4971396;28;20034;-88
2022/01/15 05:57:28;;;;;;;120.32;25.92;;;3.70;99.90;;;;;;4975127;28;20022;-88
2022/01/15 05:59:53;;;;;;;108.88;24.08;;;3.80;99.90;;;;;;4991278;28;20073;-87
2022/01/15 06:02:20;;;;;;;158.00;28.90;;;3.80;99.90;;;;;;4974295;28;20022;-89
2022/01/15 06:04:46;;;;;;;127.07;27.75;;;3.80;99.90;;;;;;4974802;28;20047;-88
2022/01/15 06:07:12;;;;;;;134.13;26.35;;;3.80;99.90;;;;;;4975230;28;20030;-87
2022/01/15 06:09:37;;;;;;;220.80;31.13;;;3.80;99.90;;;;;;4974783;28;20037;-88
2022/01/15 06:12:03;;;;;;;250.73;32.08;;;3.80;99.90;;;;;;4974562;28;20033;-88
2022/01/15 06:14:32;;;;;;;134.85;27.83;;;3.80;99.90;;;;;;4966767;28;20026;-88
2022/01/15 06:16:58;;;;;;;133.82;26.45;;;3.80;99.90;;;;;;4974898;28;20099;-88
2022/01/15 06:19:25;;;;;;;154.10;27.10;;;3.80;99.90;;;;;;4974253;28;20022;-87
2022/01/15 06:21:50;;;;;;;128.60;26.15;;;3.80;99.90;;;;;;4975383;28;20054;-88
2022/01/15 06:24:16;;;;;;;139.05;26.65;;;3.80;99.90;;;;;;4988759;28;20128;-88
2022/01/15 06:26:42;;;;;;;129.95;25.38;;;3.80;99.90;;;;;;4991107;28;20041;-88
2022/01/15 06:29:07;;;;;;;127.78;26.48;;;3.80;99.90;;;;;;4973431;28;20574;-87
2022/01/15 06:31:33;;;;;;;100.38;24.92;;;3.80;99.90;;;;;;4973844;28;20030;-88
2022/01/15 06:33:59;;;;;;;116.80;24.70;;;3.80;99.90;;;;;;4974987;28;20081;-88
2022/01/15 06:36:25;;;;;;;122.45;24.83;;;3.80;99.90;;;;;;4973538;28;20034;-88
2022/01/15 06:38:51;;;;;;;149.98;28.02;;;3.80;99.90;;;;;;4986861;28;20041;-88
2022/01/15 06:41:17;;;;;;;98.20;25.20;;;3.80;99.90;;;;;;4980562;28;20107;-88
2022/01/15 06:43:42;;;;;;;160.68;25.80;;;3.80;99.90;;;;;;4973691;28;20084;-88
2022/01/15 06:46:08;;;;;;;154.85;26.55;;;3.70;99.90;;;;;;4972247;28;20051;-87
2022/01/15 06:48:33;;;;;;;138.52;25.65;;;3.80;99.90;;;;;;4973698;28;20026;-89
2022/01/15 06:50:59;;;;;;;169.25;27.73;;;3.70;99.90;;;;;;4989173;28;20061;-89
2022/01/15 06:53:25;;;;;;;127.32;25.35;;;3.70;99.90;;;;;;4968138;28;20024;-89
2022/01/15 06:55:52;;;;;;;653.00;51.22;;;3.80;99.90;;;;;;4971797;28;20030;-89
2022/01/15 06:58:22;;;;;;;159.35;27.95;;;3.80;99.90;;;;;;4988823;28;20034;-88
2022/01/15 07:00:48;;;;;;;131.10;25.23;;;3.80;99.90;;;;;;4973331;28;20038;-89
2022/01/15 07:03:14;;;;;;;133.27;24.15;;;3.80;99.90;;;;;;4989964;28;20019;-88
2022/01/15 07:05:40;;;;;;;160.85;27.05;;;3.80;99.90;;;;;;4973883;28;20063;-88
2022/01/15 07:08:05;;;;;;;215.77;30.95;;;3.80;99.90;;;;;;4973840;28;20039;-88
2022/01/15 07:10:31;;;;;;;177.40;29.98;;;3.80;99.90;;;;;;4974031;28;20413;-88
2022/01/15 07:12:57;;;;;;;192.32;28.58;;;3.80;99.90;;;;;;4973723;28;20023;-88
2022/01/15 07:15:22;;;;;;;140.73;28.67;;;3.90;99.90;;;;;;4990920;28;20391;-89
2022/01/15 07:17:49;;;;;;;186.55;29.20;;;3.90;99.90;;;;;;4971828;28;20035;-88
2022/01/15 07:20:18;;;;;;;169.65;29.27;;;3.90;99.90;;;;;;4965036;28;20023;-88
2022/01/15 07:22:44;;;;;;;144.55;27.98;;;3.90;99.90;;;;;;4974465;28;20034;-89
2022/01/15 07:25:10;;;;;;;152.98;30.35;;;3.90;99.90;;;;;;4992503;28;20053;-88
2022/01/15 07:27:37;;;;;;;154.27;27.50;;;4.00;99.90;;;;;;4993863;28;20048;-88
2022/01/15 07:30:05;;;;;;;120.70;26.55;;;4.00;99.90;;;;;;4976610;28;20394;-88
2022/01/15 07:32:31;;;;;;;176.38;27.23;;;4.00;99.90;;;;;;4976194;28;20395;-89
2022/01/15 07:34:56;;;;;;;336.30;36.08;;;4.00;99.90;;;;;;4977107;28;20023;-88
2022/01/15 07:37:22;;;;;;;201.30;28.98;;;4.00;99.90;;;;;;4987687;28;20493;-88
2022/01/15 07:39:47;;;;;;;129.88;23.75;;;3.90;99.90;;;;;;4977178;28;20025;-88
2022/01/15 07:42:14;;;;;;;117.07;24.02;;;3.90;99.90;;;;;;4976856;28;20033;-88
2022/01/15 07:44:39;;;;;;;165.63;24.63;;;3.90;99.90;;;;;;4974976;28;20472;-88
2022/01/15 07:47:05;;;;;;;126.85;24.05;;;3.90;99.90;;;;;;4975105;28;20049;-88
2022/01/15 07:49:32;;;;;;;117.90;23.00;;;3.90;99.90;;;;;;4990791;28;20034;-89
2022/01/15 07:51:58;;;;;;;150.40;25.95;;;3.80;99.90;;;;;;4975404;28;20026;-88
2022/01/15 07:54:24;;;;;;;119.57;26.65;;;3.80;99.90;;;;;;4976023;28;20494;-88
2022/01/15 07:56:51;;;;;;;129.48;23.52;;;3.80;99.90;;;;;;4975636;28;20028;-88
2022/01/15 07:59:16;;;;;;;147.00;26.60;;;3.80;99.90;;;;;;4975965;28;20026;-88
2022/01/15 08:01:42;;;;;;;230.38;30.15;;;3.90;99.90;;;;;;4973105;28;20077;-87
2022/01/15 08:04:07;;;;;;;181.45;31.50;;;3.90;99.90;;;;;;4976263;28;20061;-86
2022/01/15 08:06:33;;;;;;;229.32;30.48;;;3.90;99.90;;;;;;4975261;28;20133;-88
2022/01/15 08:08:58;;;;;;;239.63;30.63;;;3.80;99.90;;;;;;4973128;28;20026;-87
2022/01/15 08:11:24;;;;;;;204.20;29.60;;;3.80;99.90;;;;;;4975082;28;20034;-88
2022/01/15 08:13:49;;;;;;;231.25;30.50;;;3.80;99.90;;;;;;4976033;28;20517;-87
2022/01/15 08:16:15;;;;;;;606.60;51.08;;;3.80;99.90;;;;;;4974741;28;20030;-88
2022/01/15 08:18:40;;;;;;;568.97;43.42;;;3.70;99.90;;;;;;4975859;28;20030;-86
2022/01/15 08:21:06;;;;;;;277.52;29.63;;;3.70;99.90;;;;;;4979929;28;20034;-88
2022/01/15 08:23:37;;;;;;;225.32;32.75;;;3.70;99.90;;;;;;4975830;28;20810;-88
2022/01/15 08:26:03;;;;;;;197.32;31.85;;;3.70;99.90;;;;;;4971165;28;20038;-87
2022/01/15 08:28:29;;;;;;;258.30;34.53;;;3.70;99.90;;;;;;4976642;28;20018;-88
2022/01/15 08:30:54;;;;;;;175.65;32.22;;;3.70;99.90;;;;;;4974472;28;20687;-88
2022/01/15 08:33:20;;;;;;;204.25;32.83;;;3.70;99.90;;;;;;4992623;28;20177;-87
2022/01/15 08:35:45;;;;;;;265.13;33.13;;;3.70;99.90;;;;;;4992017;28;20053;-88
2022/01/15 08:38:11;;;;;;;318.50;34.95;;;3.70;99.90;;;;;;4978366;28;20057;-88
2022/01/15 08:40:36;;;;;;;409.90;39.00;;;3.70;99.90;;;;;;4973969;28;20092;-88
2022/01/15 08:43:03;;;;;;;274.38;35.08;;;3.80;99.90;;;;;;4993156;28;20089;-88
2022/01/15 08:45:29;;;;;;;278.05;36.45;;;3.80;99.90;;;;;;4973258;28;20074;-88
2022/01/15 08:47:55;;;;;;;255.25;34.45;;;3.80;99.90;;;;;;4987929;28;20038;-88
2022/01/15 08:50:22;;;;;;;294.92;37.70;;;3.80;99.90;;;;;;4970689;28;20483;-87
2022/01/15 08:52:47;;;;;;;297.55;38.35;;;3.80;99.90;;;;;;4979306;28;20491;-87
2022/01/15 08:55:14;;;;;;;215.90;36.03;;;3.80;99.90;;;;;;4973872;28;20110;-88
2022/01/15 08:57:40;;;;;;;350.35;41.63;;;3.80;99.90;;;;;;4975301;28;20030;-87
2022/01/15 09:00:09;;;;;;;396.38;38.75;;;3.80;99.90;;;;;;4973801;28;20062;-88
2022/01/15 09:02:35;;;;;;;672.95;50.50;;;3.80;99.90;;;;;;4972432;28;20053;-88
2022/01/15 09:05:01;;;;;;;369.17;40.42;;;3.80;99.90;;;;;;4972184;28;20019;-89
2022/01/15 09:07:26;;;;;;;429.73;41.05;;;3.80;99.90;;;;;;4969713;28;20050;-88
2022/01/15 09:09:52;;;;;;;317.45;37.40;;;3.80;99.90;;;;;;4984099;28;20041;-88
2022/01/15 09:12:17;;;;;;;346.77;38.70;;;3.80;99.90;;;;;;4973909;28;20030;-90
2022/01/15 09:14:43;;;;;;;278.35;33.25;;;3.90;99.90;;;;;;4973152;28;20050;-89
2022/01/15 09:17:09;;;;;;;404.55;37.63;;;3.90;99.90;;;;;;4972884;28;20038;-88
2022/01/15 09:19:34;;;;;;;408.65;37.10;;;3.90;99.90;;;;;;4968852;28;20030;-88
2022/01/15 09:22:01;;;;;;;279.92;35.78;;;3.90;99.90;;;;;;4969097;28;20026;-88
2022/01/15 09:24:26;;;;;;;278.98;31.45;;;3.90;99.90;;;;;;4983068;28;20526;-88
2022/01/15 09:32:03;;;;;;;248.95;28.27;;;3.80;99.90;;;;;;4973654;28;20113;-88
2022/01/15 09:34:29;;;;;;;268.13;29.45;;;3.80;99.90;;;;;;4966052;28;20031;-88
2022/01/15 09:36:55;;;;;;;222.52;29.90;;;3.80;99.90;;;;;;4974328;28;20027;-88
2022/01/15 09:39:20;;;;;;;286.38;33.47;;;3.80;99.90;;;;;;4976462;28;20035;-86
2022/01/15 09:41:48;;;;;;;260.17;32.30;;;3.80;99.90;;;;;;4970391;28;20090;-86
2022/01/15 09:44:19;;;;;;;251.00;31.90;;;3.80;99.90;;;;;;4964281;28;20026;-86
2022/01/15 09:46:47;;;;;;;221.85;31.77;;;3.80;99.90;;;;;;4963464;28;20109;-85
2022/01/15 09:49:18;;;;;;;328.45;36.92;;;3.80;99.90;;;;;;4985429;28;20026;-87
2022/01/15 09:51:45;;;;;;;287.63;35.42;;;3.80;99.90;;;;;;4984264;28;20059;-87
2022/01/15 09:54:13;;;;;;;350.38;38.80;;;3.70;99.90;;;;;;4970658;28;20468;-86
2022/01/15 09:56:39;;;;;;;451.55;44.30;;;3.70;99.90;;;;;;4969554;28;20031;-88
2022/01/15 09:59:04;;;;;;;276.38;34.85;;;3.70;99.90;;;;;;4983360;28;20053;-89
2022/01/15 10:01:31;;;;;;;329.52;37.17;;;3.60;99.90;;;;;;4973459;28;20476;-88
2022/01/15 10:03:57;;;;;;;231.27;32.55;;;3.60;99.90;;;;;;4972342;28;20078;-90
2022/01/15 10:06:23;;;;;;;205.68;33.90;;;3.60;99.90;;;;;;4983072;28;20038;-88
2022/01/15 10:09:05;;;;;;;209.98;35.22;;;3.50;99.90;;;;;;4973520;28;20438;-89
2022/01/15 10:11:45;;;;;;;286.95;34.83;;;3.60;99.90;;;;;;4984862;28;20125;-88
2022/01/15 10:14:31;;;;;;;253.35;32.30;;;3.60;99.90;;;;;;4985042;28;20031;-87
2022/01/15 10:16:58;;;;;;;192.65;31.33;;;3.60;99.90;;;;;;4977338;28;20027;-87
2022/01/15 10:19:35;;;;;;;232.10;35.00;;;3.60;99.90;;;;;;4971274;28;20035;-86
2022/01/15 10:22:16;;;;;;;177.80;32.45;;;3.60;99.90;;;;;;4971453;28;20514;-87
2022/01/15 10:24:49;;;;;;;191.88;29.83;;;3.50;99.90;;;;;;4980691;28;20153;-87
2022/01/15 10:27:24;;;;;;;211.93;34.40;;;3.50;99.90;;;;;;4971631;28;20121;-86
2022/01/15 10:29:52;;;;;;;197.80;32.42;;;3.50;99.90;;;;;;4965764;28;20046;-87
2022/01/15 10:32:17;;;;;;;160.00;29.17;;;3.50;99.90;;;;;;4973846;28;20059;-88
2022/01/15 10:34:44;;;;;;;192.70;31.80;;;3.50;99.90;;;;;;4974243;28;20090;-87
2022/01/15 10:37:16;;;;;;;242.95;34.25;;;3.50;99.90;;;;;;4989920;28;20050;-87
2022/01/15 10:40:03;;;;;;;183.73;34.03;;;3.40;99.90;;;;;;4983086;28;20042;-86
2022/01/15 10:42:29;;;;;;;192.07;32.80;;;3.40;99.90;;;;;;4969661;28;20038;-87
2022/01/15 10:44:57;;;;;;;222.10;34.55;;;3.40;99.90;;;;;;4968670;28;20136;-87
2022/01/15 10:47:26;;;;;;;247.43;36.40;;;3.40;99.90;;;;;;4969722;28;20035;-88
2022/01/15 10:49:52;;;;;;;230.63;35.05;;;3.30;99.90;;;;;;4969766;28;20401;-87
2022/01/15 10:52:23;;;;;;;207.50;33.05;;;3.30;99.90;;;;;;4967306;28;20452;-87
2022/01/15 10:55:01;;;;;;;287.80;38.03;;;3.20;99.90;;;;;;4970282;28;20022;-87
2022/01/15 10:57:38;;;;;;;227.27;31.67;;;3.20;99.90;;;;;;4966164;28;20091;-87
2022/01/15 11:00:29;;;;;;;264.88;37.15;;;3.10;99.90;;;;;;4984008;28;20057;-87
2022/01/15 11:02:59;;;;;;;296.92;38.15;;;3.10;99.90;;;;;;4970452;28;20133;-87
2022/01/15 11:05:42;;;;;;;195.52;33.90;;;3.10;99.90;;;;;;4971667;28;20030;-87
2022/01/15 11:08:18;;;;;;;266.67;36.13;;;3.20;99.90;;;;;;4969771;28;20574;-87
2022/01/15 11:10:56;;;;;;;211.93;32.90;;;3.10;99.90;;;;;;4987477;28;20022;-87
2022/01/15 11:13:23;;;;;;;198.30;35.03;;;3.10;99.90;;;;;;4972321;28;20031;-87
2022/01/15 11:15:54;;;;;;;140.63;30.25;;;3.10;99.90;;;;;;4973376;28;20030;-87
2022/01/15 11:18:28;;;;;;;135.23;32.30;;;3.00;99.90;;;;;;4979952;28;20408;-87
2022/01/15 11:20:56;;;;;;;129.90;30.23;;;3.00;99.90;;;;;;4973441;28;20023;-87
2022/01/15 11:23:24;;;;;;;134.77;31.05;;;3.00;99.90;;;;;;4972737;28;20960;-86
2022/01/15 11:25:51;;;;;;;165.77;34.55;;;2.90;99.90;;;;;;4973877;28;20034;-87
2022/01/15 11:28:23;;;;;;;149.25;32.80;;;2.90;99.90;;;;;;4976592;28;20093;-87
2022/01/15 11:30:50;;;;;;;104.97;30.25;;;2.90;99.90;;;;;;4976658;28;20033;-87
2022/01/15 11:33:22;;;;;;;100.60;30.02;;;2.90;99.90;;;;;;4971905;28;20041;-87
2022/01/15 11:35:48;;;;;;;117.28;30.25;;;2.80;99.90;;;;;;4973510;28;20501;-87
2022/01/15 11:38:37;;;;;;;118.25;27.52;;;2.80;99.90;;;;;;4967619;28;20034;-86
2022/01/15 11:41:02;;;;;;;111.65;29.30;;;2.90;99.90;;;;;;4973007;28;20027;-88
2022/01/15 11:43:30;;;;;;;114.60;30.23;;;2.80;99.90;;;;;;4974242;28;20062;-87
2022/01/15 11:45:58;;;;;;;99.75;28.98;;;2.90;99.90;;;;;;4984837;28;20038;-87
2022/01/15 11:48:28;;;;;;;95.03;27.33;;;2.90;99.90;;;;;;4991804;28;20030;-87
2022/01/15 11:51:12;;;;;;;86.43;25.40;;;2.90;99.90;;;;;;4991662;28;20030;-87
2022/01/15 11:53:54;;;;;;;84.80;26.27;;;2.90;99.90;;;;;;4989486;28;20027;-88
2022/01/15 11:56:37;;;;;;;100.82;28.75;;;2.80;99.90;;;;;;4971646;28;20028;-87
2022/01/15 11:59:30;;;;;;;85.75;26.63;;;2.70;99.90;;;;;;4972356;28;20073;-87
2022/01/15 12:01:57;;;;;;;107.97;29.48;;;2.70;99.90;;;;;;4984254;28;20473;-87
2022/01/15 12:04:37;;;;;;;105.22;30.50;;;2.70;99.90;;;;;;4975455;28;20517;-86
2022/01/15 12:07:05;;;;;;;111.15;31.02;;;2.70;99.90;;;;;;4975206;28;20050;-87
2022/01/15 12:09:42;;;;;;;105.90;29.50;;;2.70;99.90;;;;;;4982243;28;20026;-87
2022/01/15 12:12:20;;;;;;;91.95;25.48;;;2.80;99.90;;;;;;4974959;28;20108;-87
2022/01/15 12:15:07;;;;;;;159.38;30.20;;;2.80;99.90;;;;;;4973487;28;20038;-87
2022/01/15 12:17:41;;;;;;;134.75;31.95;;;2.90;99.90;;;;;;4975745;28;20062;-87
2022/01/15 12:20:25;;;;;;;109.10;30.50;;;3.00;99.90;;;;;;4973412;28;20022;-87
2022/01/15 12:23:20;;;;;;;172.93;34.13;;;3.00;99.90;;;;;;4975858;28;20022;-87
2022/01/15 12:25:55;;;;;;;113.95;31.40;;;3.00;99.90;;;;;;4984035;28;20155;-87
2022/01/15 12:28:23;;;;;;;126.95;31.08;;;3.00;99.90;;;;;;4976052;28;20132;-87
2022/01/15 12:30:52;;;;;;;107.30;31.15;;;3.00;99.90;;;;;;4974057;28;20023;-86
2022/01/15 12:33:19;;;;;;;105.45;29.17;;;2.90;99.90;;;;;;4963789;28;20035;-87
2022/01/15 12:35:47;;;;;;;102.78;28.52;;;3.00;99.90;;;;;;4972637;28;20487;-87
2022/01/15 12:38:25;;;;;;;119.50;31.25;;;3.00;99.90;;;;;;4974907;28;20022;-87
2022/01/15 12:41:04;;;;;;;106.25;30.25;;;3.00;99.90;;;;;;4977309;28;20038;-87
2022/01/15 12:43:32;;;;;;;127.38;31.60;;;3.00;99.90;;;;;;4992756;28;20410;-87
2022/01/15 12:46:11;;;;;;;143.15;31.15;;;2.90;99.90;;;;;;4975512;28;20081;-87
2022/01/15 12:48:40;;;;;;;96.00;26.27;;;3.00;99.90;;;;;;4972934;28;20117;-86
2022/01/15 12:51:09;;;;;;;160.25;33.40;;;3.00;99.90;;;;;;4975796;28;20649;-87
2022/01/15 12:53:42;;;;;;;111.07;31.75;;;2.90;99.90;;;;;;4974508;28;20364;-86
2022/01/15 12:56:13;;;;;;;107.32;30.50;;;2.90;99.90;;;;;;4976520;28;20077;-87
2022/01/15 12:58:40;;;;;;;176.18;33.67;;;2.90;99.90;;;;;;4971328;28;20019;-87
2022/01/15 13:01:06;;;;;;;166.05;35.05;;;2.90;99.90;;;;;;4979634;28;20040;-87
2022/01/15 13:03:36;;;;;;;159.85;34.38;;;2.90;99.90;;;;;;4979040;28;20390;-87
2022/01/15 13:06:04;;;;;;;182.18;36.38;;;2.90;99.90;;;;;;4978812;28;20479;-87
2022/01/15 13:08:37;;;;;;;156.77;33.28;;;2.90;99.90;;;;;;4979436;28;20030;-88